EHKD/DHR METAR and TAF weather

Enter ICAO airport designator
Station Type Date Time Source
EHKD METAR 2020/09/18 20:25 UTC NOAA

EHKD 182025Z AUTO 07015KT 040V100 9999 NCD 16/10 Q1024 BLU


Station Type Date Time Source
EHKD Decoded METAR 2020/09/18 20:25 UTC NOAA

De Kooy, Netherlands (EHKD) 52-55N 004-47E 14M
Sep 18, 2020 - 04:25 PM EDT / 2020.09.18 2025 UTC
Wind: from the ENE (070 degrees) at 17 MPH (15 KT) (direction variable):0
Visibility: greater than 7 mile(s):0
Temperature: 60 F (16 C)
Dew Point: 50 F (10 C)
Relative Humidity: 67%
Pressure (altimeter): 30.24 in. Hg (1024 hPa)
ob: EHKD 182025Z AUTO 07015KT 040V100 9999 NCD 16/10 Q1024 BLU
cycle: 20

Station Type Date Time Source
EHKD TAF 2020/09/18 17:06 UTC NOAA

TAF TAF EHKD 181640Z 1817/1905 06014KT CAVOK

Example: see airport list